Accueil
METAR-TAF:

METAR-TAF

Aéroports :

Hoquiam, Washington, États-Unis

latitude: 46-58-16N, longitude: 123-55-12W, altitude: 4 m

Observation

Le bulletin a été fait il y a 9 minutes, à 17:53 UTC
Vent 11 kt de est
Température 6°C
Humidité 87%
Pression 1020 hPa
Visibilité: 11.3 km
Ciel clair

METAR: KHQM 191753Z AUTO 08011KT 7SM CLR 06/04 A3011 RMK AO2 SLP200 T00610039 10061 20017 50000

Heure: 10:02 (18:02 UTC)

Prévision

Le bulletin a été fait il y a 19 minutes, à 17:43 UTC
Prévision valable du 19 à 18 UTC au 20 à 18 UTC
Vent 9 kt de est
Visibilité: 9.7 km
Ciel clair
brume
A partir de 20 à 0100 UTC
Vent 7 kt de est
Visibilité: 10 km
Ciel clair
A partir de 20 à 1200 UTC
Vent 8 kt de est
Visibilité: 10 km
Quelques nuages à une hauteur de 15000 ft
Nuages épars à une hauteur de 20000 ft

TAF: KHQM 191743Z 1918/2018 08009KT 6SM BR SKC FM200100 09007KT P6SM SKC FM201200 09008KT P6SM FEW150 SCT200

Observations et prévisions météorologiques de plus de 4000 aéroports (messages METAR et TAF).

Les stations disponibles sont représentées par des disques jaunes et rouges sur la carte.

Passer la souris dessus pour voir le nom de la station.

Cliquer dessus pour voir les observations et prévisions météorologiques.

Pour changer de carte: cliquez sur les boutons verts avec une croix noire pour zoomer, sur le bouton vert avec un tiret pour effectuer un zoom arrière, ou sur les flèches vertes pour les cartes adjacentes.


METAR-TAF: